TimeAST,TemperatureF,Dew PointF,Humidity,Sea Level PressureIn,VisibilityMPH,Wind Direction,Wind SpeedMPH,Gust SpeedMPH,PrecipitationIn,Events,Conditions,WindDirDegrees,DateUTC
12:00 AM,82.4,77.0,84,29.95,6.2,ESE,20.7,-,N/A,,Mostly Cloudy,110,2013-06-14 04:00:00
1:00 AM,82.4,77.0,84,9999.90,6.2,ESE,18.4,-,N/A,,Mostly Cloudy,110,2013-06-14 05:00:00
2:00 AM,82,76,78,29.91,9,ESE,18.4,,,,Widespread Dust,110,2013-06-14 06:00:00
2:00 AM,82.4,77.0,84,29.89,6.2,ESE,19.6,-,N/A,,Mostly Cloudy,110,2013-06-14 06:00:00
3:00 AM,80.6,77.0,89,29.89,6.2,ESE,17.3,-,N/A,,Mostly Cloudy,110,2013-06-14 07:00:00
4:00 AM,78.8,75.2,89,29.92,6.2,ESE,15.0,-,N/A,,Mostly Cloudy,110,2013-06-14 08:00:00
5:00 AM,78,75,89,29.93,9,East,15.0,,,Rain,Light Rain Showers,100,2013-06-14 09:00:00
5:00 AM,78.8,75.2,89,29.92,6.2,East,15.0,-,N/A,,Mostly Cloudy,100,2013-06-14 09:00:00
6:00 AM,78.8,75.2,89,29.92,5.6,East,17.3,-,N/A,,Mostly Cloudy,100,2013-06-14 10:00:00
7:00 AM,82.4,77.0,84,29.95,3.1,East,17.3,-,N/A,,Heavy Haze,100,2013-06-14 11:00:00
8:00 AM,83,77,78,29.95,3,East,19.6,,,,Scattered Clouds,90,2013-06-14 12:00:00
8:00 AM,84.2,77.0,79,29.95,3.1,East,19.6,-,N/A,,Scattered Clouds,90,2013-06-14 12:00:00
9:00 AM,84.2,77.0,79,29.95,3.1,ESE,17.3,-,N/A,,Mostly Cloudy,110,2013-06-14 13:00:00
10:00 AM,80.6,77.0,89,29.95,3.1,East,23.0,-,N/A,Rain,Light Rain Showers,100,2013-06-14 14:00:00
10:15 AM,77.0,77.0,100,29.98,0.6,East,23.0,42.6,N/A,Rain,Heavy Rain,100,2013-06-14 14:15:00
11:00 AM,77,77,99,29.98,1,ESE,23.0,,,Rain,Heavy Rain,120,2013-06-14 15:00:00
11:00 AM,77.0,77.0,100,29.98,0.6,East,23.0,42.6,N/A,Rain,Heavy Rain,100,2013-06-14 15:00:00
12:00 PM,78.8,77.0,94,29.98,3.1,SE,28.8,-,N/A,Rain,Light Rain,130,2013-06-14 16:00:00
1:00 PM,78.8,77.0,94,29.95,3.1,SE,17.3,-,N/A,Rain,Light Rain,130,2013-06-14 17:00:00
2:00 PM,77,77,99,29.95,2,ESE,15.0,,,Rain,Rain,120,2013-06-14 18:00:00
2:00 PM,77.0,77.0,100,29.95,1.9,ESE,15.0,26.5,N/A,Rain,Rain,120,2013-06-14 18:00:00
3:00 PM,78.8,77.0,94,29.92,5.0,SE,15.0,-,N/A,,Mostly Cloudy,130,2013-06-14 19:00:00
4:00 PM,80.6,77.0,89,29.92,6.2,SE,16.1,-,N/A,,Mostly Cloudy,130,2013-06-14 20:00:00
5:00 PM,81,77,85,29.91,5,ESE,17.3,,,,Overcast,110,2013-06-14 21:00:00
5:00 PM,80.6,77.0,89,29.92,5.0,ESE,17.3,-,N/A,,Mostly Cloudy,110,2013-06-14 21:00:00
6:00 PM,78.8,77.0,94,29.92,6.2,East,11.5,-,N/A,,Mostly Cloudy,100,2013-06-14 22:00:00
7:00 PM,78.8,77.0,94,29.92,6.2,ESE,11.5,-,N/A,,Mostly Cloudy,110,2013-06-14 23:00:00
8:00 PM,80,76,84,29.96,9,ESE,15.0,,,,Widespread Dust,110,2013-06-15 00:00:00
8:00 PM,78.8,75.2,89,29.95,6.2,ESE,15.0,-,N/A,,Mostly Cloudy,110,2013-06-15 00:00:00
9:00 PM,80.6,77.0,89,29.98,6.2,ESE,17.3,-,N/A,,Mostly Cloudy,120,2013-06-15 01:00:00
10:00 PM,80.6,77.0,89,29.98,6.2,ESE,13.8,-,N/A,,Mostly Cloudy,110,2013-06-15 02:00:00
11:00 PM,81,77,85,29.99,9,ESE,20.7,,,,Widespread Dust,110,2013-06-15 03:00:00
11:00 PM,80.6,77.0,89,29.98,6.2,ESE,20.7,-,N/A,,Mostly Cloudy,110,2013-06-15 03:00:00